Time,TemperatureF,DewpointF,PressureIn,WindDirection,WindDirectionDegrees,WindSpeedMPH,WindSpeedGustMPH,Humidity,HourlyPrecipIn,Conditions,Clouds,dailyrainin,SoftwareType,DateUTC
2013-04-04 00:04:00,29.3,19.0,30.36,WSW,242,0.0,0.0,66,0.00,,,0.00,weatherlink.com 1.10,2013-04-04 04:04:00,
2013-04-04 00:19:00,28.1,18.0,30.36,WSW,242,0.0,0.0,66,0.00,,,0.00,weatherlink.com 1.10,2013-04-04 04:19:00,
2013-04-04 00:35:00,27.3,18.0,30.36,WSW,242,0.0,0.0,68,0.00,,,0.00,weatherlink.com 1.10,2013-04-04 04:35:00,
2013-04-04 00:50:00,26.5,17.0,30.36,WSW,242,0.0,0.0,68,0.00,,,0.00,weatherlink.com 1.10,2013-04-04 04:50:00,
2013-04-04 01:05:00,26.0,17.0,30.36,WSW,242,0.0,0.0,70,0.00,,,0.00,weatherlink.com 1.10,2013-04-04 05:05:00,
2013-04-04 01:20:00,25.4,18.0,30.37,WSW,241,0.0,1.0,72,0.00,,,0.00,weatherlink.com 1.10,2013-04-04 05:20:00,
2013-04-04 01:35:00,24.9,17.0,30.36,WSW,241,0.0,0.0,73,0.00,,,0.00,weatherlink.com 1.10,2013-04-04 05:35:00,
2013-04-04 01:50:00,24.9,18.0,30.36,WSW,241,0.0,0.0,76,0.00,,,0.00,weatherlink.com 1.10,2013-04-04 05:50:00,
2013-04-04 02:05:00,24.4,18.0,30.36,WSW,242,0.0,0.0,78,0.00,,,0.00,weatherlink.com 1.10,2013-04-04 06:05:00,
2013-04-04 02:20:00,24.2,19.0,30.35,WSW,242,0.0,0.0,81,0.00,,,0.00,weatherlink.com 1.10,2013-04-04 06:20:00,
2013-04-04 02:35:00,24.1,20.0,30.35,WSW,242,0.0,0.0,83,0.00,,,0.00,weatherlink.com 1.10,2013-04-04 06:35:00,
2013-04-04 02:50:00,23.8,19.0,30.35,WSW,242,0.0,0.0,83,0.00,,,0.00,weatherlink.com 1.10,2013-04-04 06:50:00,
2013-04-04 03:05:00,23.6,20.0,30.35,WSW,242,0.0,0.0,84,0.00,,,0.00,weatherlink.com 1.10,2013-04-04 07:05:00,
2013-04-04 03:20:00,23.4,19.0,30.34,WSW,241,0.0,0.0,84,0.00,,,0.00,weatherlink.com 1.10,2013-04-04 07:20:00,
2013-04-04 03:35:00,24.4,20.0,30.34,WSW,242,0.0,0.0,82,0.00,,,0.00,weatherlink.com 1.10,2013-04-04 07:35:00,
2013-04-04 03:50:00,25.5,18.0,30.33,WSW,242,0.0,1.0,73,0.00,,,0.00,weatherlink.com 1.10,2013-04-04 07:50:00,
2013-04-04 04:05:00,25.2,18.0,30.32,WSW,241,0.0,1.0,74,0.00,,,0.00,weatherlink.com 1.10,2013-04-04 08:05:00,
2013-04-04 04:20:00,25.0,18.0,30.32,WSW,242,0.0,0.0,74,0.00,,,0.00,weatherlink.com 1.10,2013-04-04 08:20:00,
2013-04-04 04:35:00,24.7,18.0,30.31,WSW,242,0.0,0.0,74,0.00,,,0.00,weatherlink.com 1.10,2013-04-04 08:35:00,
2013-04-04 04:50:00,24.1,17.0,30.31,WSW,241,0.0,0.0,75,0.00,,,0.00,weatherlink.com 1.10,2013-04-04 08:50:00,
2013-04-04 05:05:00,24.0,17.0,30.31,WSW,241,0.0,0.0,76,0.00,,,0.00,weatherlink.com 1.10,2013-04-04 09:05:00,
2013-04-04 05:20:00,24.2,17.0,30.30,WSW,239,0.0,0.0,75,0.00,,,0.00,weatherlink.com 1.10,2013-04-04 09:20:00,
2013-04-04 05:35:00,24.5,17.0,30.30,WSW,239,0.0,0.0,74,0.00,,,0.00,weatherlink.com 1.10,2013-04-04 09:35:00,
2013-04-04 05:50:00,24.3,18.0,30.29,WSW,239,0.0,0.0,76,0.00,,,0.00,weatherlink.com 1.10,2013-04-04 09:50:00,
2013-04-04 06:05:00,24.8,17.0,30.29,SSW,208,0.0,1.0,71,0.00,,,0.00,weatherlink.com 1.10,2013-04-04 10:05:00,
2013-04-04 06:20:00,25.9,17.0,30.29,SSW,208,0.0,1.0,69,0.00,,,0.00,weatherlink.com 1.10,2013-04-04 10:20:00,
2013-04-04 06:35:00,26.6,17.0,30.28,SSE,168,0.0,1.0,68,0.00,,,0.00,weatherlink.com 1.10,2013-04-04 10:35:00,
2013-04-04 06:50:00,26.8,17.0,30.28,ENE,69,0.0,1.0,67,0.00,,,0.00,weatherlink.com 1.10,2013-04-04 10:50:00,
2013-04-04 07:05:00,27.3,17.0,30.28,East,81,0.0,1.0,66,0.00,,,0.00,weatherlink.com 1.10,2013-04-04 11:05:00,
2013-04-04 07:20:00,27.1,17.0,30.27,ENE,78,0.0,1.0,66,0.00,,,0.00,weatherlink.com 1.10,2013-04-04 11:20:00,
2013-04-04 07:35:00,27.1,17.0,30.27,ENE,78,0.0,0.0,65,0.00,,,0.00,weatherlink.com 1.10,2013-04-04 11:35:00,
2013-04-04 07:50:00,27.0,17.0,30.26,North,356,0.0,1.0,67,0.00,,,0.00,weatherlink.com 1.10,2013-04-04 11:50:00,
2013-04-04 08:05:00,28.2,18.0,30.26,SSE,150,1.0,3.0,66,0.00,,,0.00,weatherlink.com 1.10,2013-04-04 12:05:00,
2013-04-04 08:20:00,29.8,18.0,30.26,SE,145,0.0,5.0,63,0.00,,,0.00,weatherlink.com 1.10,2013-04-04 12:20:00,
2013-04-04 08:36:00,31.5,19.0,30.26,SE,141,3.0,8.0,61,0.00,,,0.00,weatherlink.com 1.10,2013-04-04 12:36:00,
2013-04-04 08:51:00,32.9,20.0,30.25,ENE,77,2.0,6.0,59,0.00,,,0.00,weatherlink.com 1.10,2013-04-04 12:51:00,
2013-04-04 09:06:00,33.9,20.0,30.25,SE,136,3.0,5.0,58,0.00,,,0.00,weatherlink.com 1.10,2013-04-04 13:06:00,
2013-04-04 09:21:00,34.7,20.0,30.25,ESE,103,3.0,7.0,56,0.00,,,0.00,weatherlink.com 1.10,2013-04-04 13:21:00,
2013-04-04 10:06:00,38.9,22.0,30.23,SE,132,3.0,6.0,52,0.00,,,0.00,weatherlink.com 1.10,2013-04-04 14:06:00,
2013-04-04 10:21:00,39.7,22.0,30.23,SSE,150,5.0,7.0,50,0.00,,,0.00,weatherlink.com 1.10,2013-04-04 14:21:00,
2013-04-04 10:36:00,41.2,22.0,30.23,SE,132,7.0,9.0,46,0.00,,,0.00,weatherlink.com 1.10,2013-04-04 14:36:00,
2013-04-04 10:52:00,42.5,21.0,30.22,South,179,5.0,9.0,42,0.00,,,0.00,weatherlink.com 1.10,2013-04-04 14:52:00,
2013-04-04 11:51:00,44.9,21.0,30.20,South,175,4.0,6.0,39,0.00,,,0.00,weatherlink.com 1.10,2013-04-04 15:51:00,
2013-04-04 12:06:00,45.9,23.0,30.19,SSE,163,5.0,7.0,40,0.00,,,0.00,weatherlink.com 1.10,2013-04-04 16:06:00,
2013-04-04 12:21:00,46.2,20.0,30.18,WNW,302,2.0,7.0,35,0.00,,,0.00,weatherlink.com 1.10,2013-04-04 16:21:00,
2013-04-04 12:37:00,47.3,21.0,30.18,SSW,205,2.0,4.0,35,0.00,,,0.00,weatherlink.com 1.10,2013-04-04 16:37:00,
2013-04-04 12:52:00,47.9,20.0,30.17,SW,224,1.0,8.0,33,0.00,,,0.00,weatherlink.com 1.10,2013-04-04 16:52:00,
2013-04-04 13:07:00,48.8,21.0,30.15,SSE,147,2.0,6.0,34,0.00,,,0.00,weatherlink.com 1.10,2013-04-04 17:07:00,
2013-04-04 13:22:00,49.2,21.0,30.14,East,79,0.0,6.0,33,0.00,,,0.00,weatherlink.com 1.10,2013-04-04 17:22:00,
2013-04-04 13:37:00,50.0,22.0,30.14,SSW,210,4.0,8.0,34,0.00,,,0.00,weatherlink.com 1.10,2013-04-04 17:37:00,
2013-04-04 13:52:00,50.0,20.0,30.12,SSW,201,2.0,4.0,31,0.00,,,0.00,weatherlink.com 1.10,2013-04-04 17:52:00,
2013-04-04 14:07:00,51.0,23.0,30.12,WSW,243,10.0,12.0,34,0.00,,,0.00,weatherlink.com 1.10,2013-04-04 18:07:00,
2013-04-04 14:22:00,50.9,22.0,30.11,West,271,5.0,8.0,32,0.00,,,0.00,weatherlink.com 1.10,2013-04-04 18:22:00,
2013-04-04 14:37:00,50.7,22.0,30.10,WSW,249,5.0,9.0,32,0.00,,,0.00,weatherlink.com 1.10,2013-04-04 18:37:00,
2013-04-04 14:52:00,51.2,22.0,30.10,West,269,9.0,11.0,32,0.00,,,0.00,weatherlink.com 1.10,2013-04-04 18:52:00,
2013-04-04 15:07:00,52.5,22.0,30.09,SSE,163,3.0,8.0,30,0.00,,,0.00,weatherlink.com 1.10,2013-04-04 19:07:00,
2013-04-04 15:22:00,53.0,25.0,30.08,East,98,2.0,8.0,34,0.00,,,0.00,weatherlink.com 1.10,2013-04-04 19:22:00,
2013-04-04 15:37:00,53.8,22.0,30.07,South,176,1.0,10.0,29,0.00,,,0.00,weatherlink.com 1.10,2013-04-04 19:37:00,
2013-04-04 16:01:00,53.4,24.0,30.06,SW,217,3.0,8.0,32,0.00,,,0.00,weatherlink.com 1.10,2013-04-04 20:01:00,
2013-04-04 16:07:00,54.0,22.0,30.06,SSW,193,5.0,9.0,29,0.00,,,0.00,weatherlink.com 1.10,2013-04-04 20:07:00,
2013-04-04 16:22:00,54.2,24.0,30.05,South,180,8.0,12.0,31,0.00,,,0.00,weatherlink.com 1.10,2013-04-04 20:22:00,
2013-04-04 16:37:00,53.9,23.0,30.05,WSW,243,6.0,8.0,30,0.00,,,0.00,weatherlink.com 1.10,2013-04-04 20:37:00,
2013-04-04 16:52:00,54.1,22.0,30.04,West,260,3.0,11.0,29,0.00,,,0.00,weatherlink.com 1.10,2013-04-04 20:52:00,
2013-04-04 17:07:00,54.1,21.0,30.03,SSW,198,1.0,10.0,27,0.00,,,0.00,weatherlink.com 1.10,2013-04-04 21:07:00,
2013-04-04 17:22:00,54.6,21.0,30.02,WSW,250,0.0,7.0,27,0.00,,,0.00,weatherlink.com 1.10,2013-04-04 21:22:00,
2013-04-04 17:37:00,55.3,23.0,30.02,WNW,287,8.0,12.0,29,0.00,,,0.00,weatherlink.com 1.10,2013-04-04 21:37:00,
2013-04-04 17:52:00,55.0,23.0,30.02,SW,221,3.0,7.0,29,0.00,,,0.00,weatherlink.com 1.10,2013-04-04 21:52:00,
2013-04-04 18:07:00,54.9,22.0,30.02,SW,233,10.0,13.0,28,0.00,,,0.00,weatherlink.com 1.10,2013-04-04 22:07:00,
2013-04-04 18:23:00,54.7,24.0,30.02,WSW,245,7.0,9.0,30,0.00,,,0.00,weatherlink.com 1.10,2013-04-04 22:23:00,
2013-04-04 18:38:00,54.9,22.0,30.02,WSW,250,8.0,9.0,28,0.00,,,0.00,weatherlink.com 1.10,2013-04-04 22:38:00,
2013-04-04 18:53:00,54.5,21.0,30.02,West,269,4.0,14.0,27,0.00,,,0.00,weatherlink.com 1.10,2013-04-04 22:53:00,
2013-04-04 19:08:00,54.3,21.0,30.02,West,277,6.0,10.0,27,0.00,,,0.00,weatherlink.com 1.10,2013-04-04 23:08:00,
2013-04-04 19:23:00,54.1,21.0,30.02,WSW,245,5.0,7.0,28,0.00,,,0.00,weatherlink.com 1.10,2013-04-04 23:23:00,
2013-04-04 19:38:00,53.9,20.0,30.02,WSW,248,6.0,9.0,27,0.00,,,0.00,weatherlink.com 1.10,2013-04-04 23:38:00,
2013-04-04 19:53:00,53.3,22.0,30.01,SW,226,3.0,5.0,29,0.00,,,0.00,weatherlink.com 1.10,2013-04-04 23:53:00,
2013-04-04 20:08:00,52.0,21.0,30.00,SSW,201,2.0,4.0,30,0.00,,,0.00,weatherlink.com 1.10,2013-04-05 00:08:00,
2013-04-04 20:23:00,50.7,22.0,30.00,South,184,3.0,4.0,32,0.00,,,0.00,weatherlink.com 1.10,2013-04-05 00:23:00,
2013-04-04 20:38:00,49.7,21.0,30.00,SSW,205,1.0,3.0,33,0.00,,,0.00,weatherlink.com 1.10,2013-04-05 00:38:00,
2013-04-04 20:53:00,48.8,21.0,30.00,SSE,152,2.0,2.0,34,0.00,,,0.00,weatherlink.com 1.10,2013-04-05 00:53:00,
2013-04-04 21:08:00,47.9,22.0,30.00,South,173,1.0,3.0,36,0.00,,,0.00,weatherlink.com 1.10,2013-04-05 01:08:00,
2013-04-04 21:23:00,46.8,23.0,30.01,SSE,157,0.0,1.0,40,0.00,,,0.00,weatherlink.com 1.10,2013-04-05 01:23:00,
2013-04-04 21:38:00,43.0,23.0,30.01,SSE,156,0.0,1.0,46,0.00,,,0.00,weatherlink.com 1.10,2013-04-05 01:38:00,
2013-04-04 22:08:00,42.1,25.0,30.01,SSE,152,0.0,1.0,50,0.00,,,0.00,weatherlink.com 1.10,2013-04-05 02:08:00,
2013-04-04 22:23:00,39.9,24.0,30.01,SSE,152,0.0,0.0,53,0.00,,,0.00,weatherlink.com 1.10,2013-04-05 02:23:00,
2013-04-04 22:38:00,39.1,24.0,30.01,SSE,153,0.0,1.0,56,0.00,,,0.00,weatherlink.com 1.10,2013-04-05 02:38:00,
2013-04-04 22:53:00,37.8,24.0,30.01,SSE,152,0.0,1.0,59,0.00,,,0.00,weatherlink.com 1.10,2013-04-05 02:53:00,
2013-04-04 23:08:00,38.7,25.0,30.00,SSE,152,0.0,1.0,58,0.00,,,0.00,weatherlink.com 1.10,2013-04-05 03:08:00,
2013-04-04 23:23:00,37.8,25.0,30.00,SSE,152,0.0,1.0,60,0.00,,,0.00,weatherlink.com 1.10,2013-04-05 03:23:00,
2013-04-04 23:38:00,36.7,25.0,30.00,SSE,152,0.0,1.0,62,0.00,,,0.00,weatherlink.com 1.10,2013-04-05 03:38:00,
2013-04-04 23:53:00,36.5,25.0,30.00,SSE,152,0.0,0.0,63,0.00,,,0.00,weatherlink.com 1.10,2013-04-05 03:53:00,